Terminal Aerodrome Forecast
Issued by NWS

Home | Current Version | Previous Version | Text Only | Print | Product List | Glossary On
Versions: 1 2 3 4 5 6 7 8 9 10 11 12 13 14 15 16 17 18 19 20 21 22 23 24 25 26
054
FTAK31 PAJN 041150
TAFASI
TAF
PASI 041150Z 0412/0512 09010KT 3SM -SHSNRA SCT025 OVC030
      TEMPO 0412/0416 10008G18KT 1SM -SHSN BKN020 OVC025
     FM042200 06010KT P6SM VCSH SCT030 SCT060=

USA.gov is the U.S. government's official web portal to all federal, state and local government web resources and services.